^^
Datos históricos de la estación: Murcia-Puente Tocinos
Diario Informe para Mayo 6, 2019 Unidades:  Ambas    Ingés   Métrico
Diario Semanal Mensual Anual
  Máxima: Mínima: Promedio:
Temperatura: 64.9 °F /  18.3 °C 46.6 °F /  8.1 °C 53.6 °F /  12 °C
Punto de rocio: 41.9 °F /  5.5 °C 24.6 °F /  -4.1 °C 29.5 °F /  -1.4 °C
Humedad: 82% 23% 42%
Velocidad viento: 10.7mph /  17.2km/h - 4.8mph /  7.7km/h
Racha viento: 15.2mph /  24.5km/h - -
Viento- - SSO
Presión: 30.4 in /  1028.2 hPa 30.3 in /  1025.1 hPa -
Precipitación: 0 in /  0.0 mm    
 
 
Tabla de datos para Mayo 6, 2019
Hora Temperatura Punto de rocio Presión Viento Velocidad viento Racha viento Humedad Intensidad lluvia(por hora) Nubes
00:04 47.1 °F /  8.4 °C 41.9 °F /  5.5 °C 30.4in /  1028.1hPa Sur 5.9mph /  9.5km/h 12mph /  19.3km/h 82% 0in /  0.0mm
00:09 46.9 °F /  8.3 °C 41.7 °F /  5.4 °C 30.4in /  1027.9hPa SSO 6.8mph /  11km/h 12mph /  19.3km/h 82% 0in /  0.0mm
00:14 46.8 °F /  8.2 °C 41.5 °F /  5.3 °C 30.4in /  1027.9hPa SSO 7.6mph /  12.2km/h 13mph /  20.9km/h 81.4% 0in /  0.0mm
00:19 46.9 °F /  8.3 °C 41.2 °F /  5.1 °C 30.4in /  1027.9hPa SO 7.2mph /  11.6km/h 13mph /  20.9km/h 80.2% 0in /  0.0mm
00:24 47.1 °F /  8.4 °C 40.6 °F /  4.8 °C 30.4in /  1027.8hPa SO 6.9mph /  11.1km/h 12mph /  19.3km/h 78.4% 0in /  0.0mm
00:29 47.3 °F /  8.5 °C 40.3 °F /  4.6 °C 30.4in /  1027.8hPa SO 6.3mph /  10.2km/h 10.7mph /  17.2km/h 76.7% 0in /  0.0mm
00:34 47.3 °F /  8.5 °C 40.1 °F /  4.5 °C 30.4in /  1027.8hPa SSO 5.9mph /  9.5km/h 11mph /  17.7km/h 76% 0in /  0.0mm
00:39 47.5 °F /  8.6 °C 39.9 °F /  4.4 °C 30.4in /  1027.7hPa SSO 6.5mph /  10.4km/h 12.7mph /  20.4km/h 75.1% 0in /  0.0mm
00:44 47.5 °F /  8.6 °C 39.7 °F /  4.3 °C 30.4in /  1027.7hPa SSO 6.9mph /  11.1km/h 13mph /  20.9km/h 74.6% 0in /  0.0mm
00:49 47.7 °F /  8.7 °C 39.4 °F /  4.1 °C 30.4in /  1027.7hPa SSO 6.5mph /  10.5km/h 11.8mph /  19km/h 73.3% 0in /  0.0mm
00:54 47.7 °F /  8.7 °C 39.4 °F /  4.1 °C 30.3in /  1027.5hPa Sur 6.2mph /  10km/h 12mph /  19.3km/h 73% 0in /  0.0mm
00:59 47.3 °F /  8.5 °C 39.2 °F /  4 °C 30.3in /  1027.5hPa SSO 6.3mph /  10.2km/h 9.7mph /  15.6km/h 73.4% 0in /  0.0mm
01:04 46.9 °F /  8.3 °C 39 °F /  3.9 °C 30.3in /  1027.5hPa SSO 6.4mph /  10.3km/h 10mph /  16.1km/h 74% 0in /  0.0mm
01:09 46.8 °F /  8.2 °C 38.8 °F /  3.8 °C 30.3in /  1027.5hPa SSO 5.8mph /  9.3km/h 10.7mph /  17.2km/h 74% 0in /  0.0mm
01:14 46.8 °F /  8.2 °C 38.8 °F /  3.8 °C 30.3in /  1027.5hPa SSO 5.4mph /  8.7km/h 11mph /  17.7km/h 74% 0in /  0.0mm
01:19 46.9 °F /  8.3 °C 39 °F /  3.9 °C 30.3in /  1027.5hPa SSO 5.9mph /  9.5km/h 9.7mph /  15.6km/h 73.8% 0in /  0.0mm
01:24 46.9 °F /  8.3 °C 38.7 °F /  3.7 °C 30.3in /  1027.5hPa SSO 6.2mph /  10km/h 10mph /  16.1km/h 72.7% 0in /  0.0mm
01:29 47.3 °F /  8.5 °C 38.5 °F /  3.6 °C 30.3in /  1027.5hPa Sur 6mph /  9.7km/h 9.2mph /  14.8km/h 71.6% 0in /  0.0mm
01:34 47.5 °F /  8.6 °C 38.3 °F /  3.5 °C 30.3in /  1027.5hPa Sur 5.9mph /  9.5km/h 10.4mph /  16.7km/h 70.2% 0in /  0.0mm
01:39 47.7 °F /  8.7 °C 37.9 °F /  3.3 °C 30.3in /  1027.4hPa Sur 6.2mph /  10km/h 10mph /  16.1km/h 69% 0in /  0.0mm
01:44 47.5 °F /  8.6 °C 37.9 °F /  3.3 °C 30.3in /  1027.4hPa Sur 6.4mph /  10.3km/h 9mph /  14.5km/h 69.7% 0in /  0.0mm
01:49 47.1 °F /  8.4 °C 37.8 °F /  3.2 °C 30.3in /  1027.5hPa Sur 5.3mph /  8.5km/h 8.5mph /  13.7km/h 70% 0in /  0.0mm
01:54 47.1 °F /  8.4 °C 37.6 °F /  3.1 °C 30.3in /  1027.5hPa Sur 4.7mph /  7.6km/h 10.4mph /  16.7km/h 69.4% 0in /  0.0mm
01:59 47.1 °F /  8.4 °C 37.2 °F /  2.9 °C 30.3in /  1027.5hPa SSO 6.6mph /  10.6km/h 11.8mph /  19km/h 68.3% 0in /  0.0mm
02:04 46.9 °F /  8.3 °C 36.5 °F /  2.5 °C 30.3in /  1027.5hPa SSO 7.4mph /  11.9km/h 12.3mph /  19.8km/h 67% 0in /  0.0mm
02:09 46.8 °F /  8.2 °C 36.3 °F /  2.4 °C 30.3in /  1027.5hPa Sur 7.8mph /  12.6km/h 13.8mph /  22.2km/h 66.8% 0in /  0.0mm
02:14 46.6 °F /  8.1 °C 35.8 °F /  2.1 °C 30.3in /  1027.5hPa Sur 8.1mph /  13km/h 14.5mph /  23.3km/h 65.7% 0in /  0.0mm
02:19 46.6 °F /  8.1 °C 35.2 °F /  1.8 °C 30.3in /  1027.5hPa Sur 8.8mph /  14.2km/h 15mph /  24.1km/h 64.4% 0in /  0.0mm
02:24 46.6 °F /  8.1 °C 35.1 °F /  1.7 °C 30.3in /  1027.4hPa SSO 9.2mph /  14.8km/h 13mph /  20.9km/h 64% 0in /  0.0mm
02:29 46.8 °F /  8.2 °C 34.5 °F /  1.4 °C 30.3in /  1027.4hPa Sur 7.2mph /  11.6km/h 12mph /  19.3km/h 62.1% 0in /  0.0mm
02:34 46.9 °F /  8.3 °C 34 °F /  1.1 °C 30.3in /  1027.5hPa OSO 6.2mph /  10km/h 7.4mph /  11.9km/h 60.6% 0in /  0.0mm
02:39 47.5 °F /  8.6 °C 32.9 °F /  0.5 °C 30.3in /  1027.5hPa SSO 5.5mph /  8.9km/h 9.2mph /  14.8km/h 56.8% 0in /  0.0mm
02:44 49.1 °F /  9.5 °C 31.3 °F /  -0.4 °C 30.3in /  1027.5hPa SO 5.2mph /  8.4km/h 14.7mph /  23.7km/h 50.2% 0in /  0.0mm
02:49 50.9 °F /  10.5 °C 30.6 °F /  -0.8 °C 30.3in /  1027.6hPa SO 6.6mph /  10.7km/h 15mph /  24.1km/h 45.4% 0in /  0.0mm
02:54 51.8 °F /  11 °C 29.8 °F /  -1.2 °C 30.3in /  1027.6hPa SO 7.4mph /  11.9km/h 14mph /  22.5km/h 42.7% 0in /  0.0mm
02:59 52.3 °F /  11.3 °C 29.7 °F /  -1.3 °C 30.3in /  1027.6hPa SO 7.5mph /  12.1km/h 14mph /  22.5km/h 41.7% 0in /  0.0mm
03:04 52.2 °F /  11.2 °C 29.7 °F /  -1.3 °C 30.4in /  1027.8hPa SO 7.6mph /  12.2km/h 14.5mph /  23.3km/h 41.8% 0in /  0.0mm
03:09 52.2 °F /  11.2 °C 29.1 °F /  -1.6 °C 30.4in /  1027.8hPa SSO 8.2mph /  13.2km/h 15mph /  24.1km/h 41% 0in /  0.0mm
03:14 52 °F /  11.1 °C 29.1 °F /  -1.6 °C 30.4in /  1027.8hPa SO 8.5mph /  13.7km/h 14mph /  22.5km/h 41.1% 0in /  0.0mm
03:19 52 °F /  11.1 °C 28.9 °F /  -1.7 °C 30.4in /  1027.8hPa SO 8.9mph /  14.4km/h 13mph /  20.9km/h 41% 0in /  0.0mm
03:24 51.8 °F /  11 °C 28.8 °F /  -1.8 °C 30.4in /  1027.7hPa SSO 9.2mph /  14.8km/h 13mph /  20.9km/h 41% 0in /  0.0mm
03:29 51.8 °F /  11 °C 28.8 °F /  -1.8 °C 30.4in /  1027.7hPa SSO 8.9mph /  14.3km/h 13mph /  20.9km/h 41% 0in /  0.0mm
03:34 51.4 °F /  10.8 °C 28.8 °F /  -1.8 °C 30.4in /  1027.7hPa SSO 8.7mph /  14km/h 13.8mph /  22.2km/h 41.4% 0in /  0.0mm
03:39 51.3 °F /  10.7 °C 28.9 °F /  -1.7 °C 30.3in /  1027.5hPa SO 9mph /  14.5km/h 14mph /  22.5km/h 42.1% 0in /  0.0mm
03:44 50.7 °F /  10.4 °C 29.1 °F /  -1.6 °C 30.3in /  1027.5hPa SO 9.2mph /  14.8km/h 15mph /  24.1km/h 43.2% 0in /  0.0mm
03:49 50 °F /  10 °C 29.3 °F /  -1.5 °C 30.3in /  1027.5hPa SSO 9.2mph /  14.8km/h 15mph /  24.1km/h 44.7% 0in /  0.0mm
03:54 49.6 °F /  9.8 °C 29.1 °F /  -1.6 °C 30.3in /  1027.2hPa SO 9.2mph /  14.8km/h 15.2mph /  24.5km/h 44.8% 0in /  0.0mm
03:59 50.4 °F /  10.2 °C 29.1 °F /  -1.6 °C 30.3in /  1027.2hPa SO 10.3mph /  16.5km/h 15mph /  24.1km/h 44% 0in /  0.0mm
04:04 50.2 °F /  10.1 °C 29.5 °F /  -1.4 °C 30.3in /  1027.2hPa SO 10.7mph /  17.2km/h 15mph /  24.1km/h 44.8% 0in /  0.0mm
04:09 50 °F /  10 °C 29.5 °F /  -1.4 °C 30.3in /  1027.0hPa SSO 8.7mph /  14km/h 13.7mph /  22km/h 45% 0in /  0.0mm
04:14 49.6 °F /  9.8 °C 29.7 °F /  -1.3 °C 30.3in /  1027.0hPa SSO 7.6mph /  12.2km/h 14mph /  22.5km/h 45.8% 0in /  0.0mm
04:19 49.5 °F /  9.7 °C 29.8 °F /  -1.2 °C 30.3in /  1027.0hPa SSO 8.6mph /  13.9km/h 14mph /  22.5km/h 46.8% 0in /  0.0mm
04:24 48.9 °F /  9.4 °C 30 °F /  -1.1 °C 30.3in /  1027.0hPa SSO 9.2mph /  14.8km/h 14mph /  22.5km/h 47.8% 0in /  0.0mm
04:29 48.7 °F /  9.3 °C 29.8 °F /  -1.2 °C 30.3in /  1027.0hPa SSO 9.2mph /  14.8km/h 14mph /  22.5km/h 48% 0in /  0.0mm
04:34 48.7 °F /  9.3 °C 29.8 °F /  -1.2 °C 30.3in /  1027.0hPa SSO 9.2mph /  14.8km/h 14mph /  22.5km/h 47.9% 0in /  0.0mm
04:39 48.4 °F /  9.1 °C 29.7 °F /  -1.3 °C 30.3in /  1026.9hPa SSO 8.4mph /  13.6km/h 11.5mph /  18.5km/h 48% 0in /  0.0mm
04:44 48 °F /  8.9 °C 29.7 °F /  -1.3 °C 30.3in /  1026.9hPa SSO 8.1mph /  13km/h 12mph /  19.3km/h 48.8% 0in /  0.0mm
04:49 47.8 °F /  8.8 °C 30 °F /  -1.1 °C 30.3in /  1026.9hPa SSO 7.3mph /  11.8km/h 11mph /  17.7km/h 50.2% 0in /  0.0mm
04:54 47.1 °F /  8.4 °C 30.4 °F /  -0.9 °C 30.3in /  1026.7hPa SSO 6.9mph /  11.1km/h 10.4mph /  16.7km/h 51.8% 0in /  0.0mm
04:59 46.8 °F /  8.2 °C 30.4 °F /  -0.9 °C 30.3in /  1026.7hPa SSO 6.9mph /  11.1km/h 10.4mph /  16.7km/h 52.6% 0in /  0.0mm
05:04 46.9 °F /  8.3 °C 30 °F /  -1.1 °C 30.3in /  1026.7hPa SSO 6.9mph /  11.1km/h 10.4mph /  16.7km/h 51.9% 0in /  0.0mm
05:09 47.3 °F /  8.5 °C 29.5 °F /  -1.4 °C 30.3in /  1026.5hPa SSO 6.6mph /  10.6km/h 10.4mph /  16.7km/h 49.9% 0in /  0.0mm
05:14 47.8 °F /  8.8 °C 29.1 °F /  -1.6 °C 30.3in /  1026.5hPa SO 6.4mph /  10.3km/h 10mph /  16.1km/h 48% 0in /  0.0mm
05:19 48.2 °F /  9 °C 28.9 °F /  -1.7 °C 30.3in /  1026.5hPa SO 6.3mph /  10.1km/h 9.2mph /  14.8km/h 47% 0in /  0.0mm
05:24 48.2 °F /  9 °C 28.8 °F /  -1.8 °C 30.3in /  1026.5hPa SSO 6.2mph /  10km/h 10.4mph /  16.7km/h 46.7% 0in /  0.0mm
05:29 48.4 °F /  9.1 °C 28.4 °F /  -2 °C 30.3in /  1026.5hPa SSO 6.2mph /  10km/h 11.2mph /  18km/h 45.8% 0in /  0.0mm
05:34 48.7 °F /  9.3 °C 28 °F /  -2.2 °C 30.3in /  1026.5hPa SSO 6.2mph /  10km/h 12mph /  19.3km/h 44.4% 0in /  0.0mm
05:39 49.1 °F /  9.5 °C 27.5 °F /  -2.5 °C 30.3in /  1026.4hPa Sur 6.6mph /  10.7km/h 12mph /  19.3km/h 43.1% 0in /  0.0mm
05:44 49.3 °F /  9.6 °C 27.7 °F /  -2.4 °C 30.3in /  1026.4hPa SSO 6.9mph /  11.1km/h 12mph /  19.3km/h 43% 0in /  0.0mm
05:49 49.3 °F /  9.6 °C 27.3 °F /  -2.6 °C 30.3in /  1026.4hPa SSO 7.7mph /  12.4km/h 14mph /  22.5km/h 42.5% 0in /  0.0mm
05:54 49.5 °F /  9.7 °C 27.1 °F /  -2.7 °C 30.3in /  1026.4hPa SSO 8.1mph /  13km/h 14mph /  22.5km/h 41.8% 0in /  0.0mm
05:59 49.5 °F /  9.7 °C 26.8 °F /  -2.9 °C 30.3in /  1026.4hPa SSO 8.4mph /  13.5km/h 14mph /  22.5km/h 41.1% 0in /  0.0mm
06:04 49.5 °F /  9.7 °C 26.8 °F /  -2.9 °C 30.3in /  1026.4hPa SSO 8.5mph /  13.7km/h 12.7mph /  20.4km/h 41% 0in /  0.0mm
06:09 49.3 °F /  9.6 °C 26.6 °F /  -3 °C 30.3in /  1026.3hPa SSO 7.4mph /  11.9km/h 13mph /  20.9km/h 41% 0in /  0.0mm
06:14 49.5 °F /  9.7 °C 26.2 °F /  -3.2 °C 30.3in /  1026.3hPa SO 6.9mph /  11.1km/h 13mph /  20.9km/h 40.3% 0in /  0.0mm
06:19 49.6 °F /  9.8 °C 26.2 °F /  -3.2 °C 30.3in /  1026.3hPa SSO 7.2mph /  11.6km/h 13mph /  20.9km/h 39.9% 0in /  0.0mm
06:24 49.6 °F /  9.8 °C 26.2 °F /  -3.2 °C 30.3in /  1026.3hPa SSO 7.4mph /  11.9km/h 12mph /  19.3km/h 40% 0in /  0.0mm
06:29 49.5 °F /  9.7 °C 26.2 °F /  -3.2 °C 30.3in /  1026.3hPa Sur 6.6mph /  10.6km/h 12mph /  19.3km/h 40.3% 0in /  0.0mm
06:34 48.9 °F /  9.4 °C 26.2 °F /  -3.2 °C 30.3in /  1026.4hPa SSO 6.2mph /  10km/h 11.5mph /  18.5km/h 41% 0in /  0.0mm
06:39 48.6 °F /  9.2 °C 26.1 °F /  -3.3 °C 30.3in /  1026.4hPa SSO 6.3mph /  10.2km/h 12mph /  19.3km/h 41% 0in /  0.0mm
06:44 48.7 °F /  9.3 °C 26.1 °F /  -3.3 °C 30.3in /  1026.4hPa SSO 6.4mph /  10.3km/h 9.7mph /  15.6km/h 41% 0in /  0.0mm
06:49 48.9 °F /  9.4 °C 25.7 °F /  -3.5 °C 30.3in /  1026.4hPa SSO 6.4mph /  10.3km/h 13.8mph /  22.2km/h 40% 0in /  0.0mm
06:54 49.5 °F /  9.7 °C 25.7 °F /  -3.5 °C 30.3in /  1026.4hPa SO 6.4mph /  10.3km/h 14mph /  22.5km/h 39.5% 0in /  0.0mm
06:59 49.5 °F /  9.7 °C 25.5 °F /  -3.6 °C 30.3in /  1026.4hPa SO 7.6mph /  12.2km/h 13mph /  20.9km/h 39% 0in /  0.0mm
07:04 49.5 °F /  9.7 °C 25.5 °F /  -3.6 °C 30.3in /  1026.4hPa SSO 8.1mph /  13km/h 11.5mph /  18.5km/h 39% 0in /  0.0mm
07:09 49.6 °F /  9.8 °C 25.7 °F /  -3.5 °C 30.3in /  1026.4hPa SSO 7.8mph /  12.5km/h 12mph /  19.3km/h 39% 0in /  0.0mm
07:14 49.6 °F /  9.8 °C 25.7 °F /  -3.5 °C 30.3in /  1026.4hPa SSO 7.6mph /  12.2km/h 12mph /  19.3km/h 39% 0in /  0.0mm
07:19 49.5 °F /  9.7 °C 25.5 °F /  -3.6 °C 30.3in /  1026.6hPa Sur 6.7mph /  10.8km/h 12mph /  19.3km/h 39.2% 0in /  0.0mm
07:24 48.9 °F /  9.4 °C 25.9 °F /  -3.4 °C 30.3in /  1026.6hPa Sur 6.2mph /  10km/h 11.2mph /  18km/h 40.4% 0in /  0.0mm
07:29 48.2 °F /  9 °C 25.9 °F /  -3.4 °C 30.3in /  1026.6hPa SSO 6.6mph /  10.7km/h 12mph /  19.3km/h 41.3% 0in /  0.0mm
07:34 48 °F /  8.9 °C 25.9 °F /  -3.4 °C 30.3in /  1026.6hPa Sur 6.9mph /  11.1km/h 12mph /  19.3km/h 41.8% 0in /  0.0mm
07:39 47.8 °F /  8.8 °C 25.9 °F /  -3.4 °C 30.3in /  1026.6hPa Sur 6.6mph /  10.6km/h 10mph /  16.1km/h 42% 0in /  0.0mm
07:44 47.8 °F /  8.8 °C 25.9 °F /  -3.4 °C 30.3in /  1026.6hPa SSO 6.4mph /  10.3km/h 10.4mph /  16.7km/h 42% 0in /  0.0mm
07:49 47.8 °F /  8.8 °C 25.9 °F /  -3.4 °C 30.3in /  1026.7hPa SSO 6.3mph /  10.1km/h 10mph /  16.1km/h 42.1% 0in /  0.0mm
07:54 47.7 °F /  8.7 °C 25.9 °F /  -3.4 °C 30.3in /  1026.7hPa SSO 6.2mph /  10km/h 9.2mph /  14.8km/h 42.4% 0in /  0.0mm
07:59 47.8 °F /  8.8 °C 25.7 °F /  -3.5 °C 30.3in /  1026.7hPa SSO 6.3mph /  10.2km/h 10.4mph /  16.7km/h 42% 0in /  0.0mm
08:04 48 °F /  8.9 °C 25.5 °F /  -3.6 °C 30.3in /  1026.8hPa SSO 6.4mph /  10.3km/h 10.7mph /  17.2km/h 41.3% 0in /  0.0mm
08:09 48 °F /  8.9 °C 25.5 °F /  -3.6 °C 30.3in /  1026.8hPa SSO 6.7mph /  10.8km/h 11mph /  17.7km/h 41% 0in /  0.0mm
08:14 48.4 °F /  9.1 °C 25.3 °F /  -3.7 °C 30.3in /  1026.8hPa SSO 6.9mph /  11.1km/h 11.8mph /  19km/h 40.2% 0in /  0.0mm
08:19 48.7 °F /  9.3 °C 25 °F /  -3.9 °C 30.3in /  1026.9hPa SSO 6.9mph /  11.1km/h 12.7mph /  20.4km/h 39.3% 0in /  0.0mm
08:24 49.1 °F /  9.5 °C 24.8 °F /  -4 °C 30.3in /  1026.9hPa SO 6.9mph /  11.1km/h 13mph /  20.9km/h 38.6% 0in /  0.0mm
08:29 49.5 °F /  9.7 °C 24.8 °F /  -4 °C 30.3in /  1026.9hPa SO 6.9mph /  11.1km/h 10.4mph /  16.7km/h 38% 0in /  0.0mm
08:34 49.5 °F /  9.7 °C 24.6 °F /  -4.1 °C 30.3in /  1027.0hPa SSO 6.9mph /  11.1km/h 13mph /  20.9km/h 37.5% 0in /  0.0mm
08:39 49.8 °F /  9.9 °C 24.6 °F /  -4.1 °C 30.3in /  1027.0hPa SO 7.3mph /  11.8km/h 13mph /  20.9km/h 37% 0in /  0.0mm
08:44 49.8 °F /  9.9 °C 24.6 °F /  -4.1 °C 30.3in /  1027.0hPa SO 7.6mph /  12.2km/h 13mph /  20.9km/h 37% 0in /  0.0mm
08:49 49.8 °F /  9.9 °C 24.6 °F /  -4.1 °C 30.3in /  1027.2hPa SSO 6.6mph /  10.7km/h 11mph /  17.7km/h 37% 0in /  0.0mm
08:54 49.8 °F /  9.9 °C 24.6 °F /  -4.1 °C 30.3in /  1027.2hPa Sur 6.2mph /  10km/h 9mph /  14.5km/h 37% 0in /  0.0mm
08:59 49.6 °F /  9.8 °C 25 °F /  -3.9 °C 30.3in /  1027.2hPa SSO 5.5mph /  8.8km/h 7.4mph /  11.9km/h 38% 0in /  0.0mm
09:04 49.6 °F /  9.8 °C 25 °F /  -3.9 °C 30.3in /  1027.4hPa Oeste 5.2mph /  8.4km/h 7mph /  11.3km/h 38% 0in /  0.0mm
09:09 49.5 °F /  9.7 °C 25 °F /  -3.9 °C 30.3in /  1027.4hPa Oeste 3.9mph /  6.2km/h 5mph /  8km/h 38.1% 0in /  0.0mm
09:14 49.5 °F /  9.7 °C 25.3 °F /  -3.7 °C 30.3in /  1027.4hPa Oeste 3.1mph /  5km/h 5mph /  8km/h 39% 0in /  0.0mm
09:19 49.3 °F /  9.6 °C 25.9 °F /  -3.4 °C 30.3in /  1027.5hPa OSO 3mph /  4.8km/h 5.8mph /  9.3km/h 40% 0in /  0.0mm
09:24 48.9 °F /  9.4 °C 25.7 °F /  -3.5 °C 30.3in /  1027.5hPa SO 2.9mph /  4.7km/h 6.9mph /  11.1km/h 40.2% 0in /  0.0mm
09:29 49.1 °F /  9.5 °C 25.9 °F /  -3.4 °C 30.3in /  1027.5hPa SO 2.9mph /  4.7km/h 7mph /  11.3km/h 40.1% 0in /  0.0mm
09:34 49.3 °F /  9.6 °C 27 °F /  -2.8 °C 30.4in /  1027.7hPa SO 3.1mph /  5km/h 5mph /  8km/h 41.7% 0in /  0.0mm
09:39 49.3 °F /  9.6 °C 26.6 °F /  -3 °C 30.4in /  1027.7hPa SO 3.1mph /  5km/h 4mph /  6.4km/h 41% 0in /  0.0mm
09:44 49.6 °F /  9.8 °C 26.6 °F /  -3 °C 30.4in /  1027.7hPa SO 2.5mph /  4km/h 5.4mph /  8.7km/h 40.4% 0in /  0.0mm
09:49 50.7 °F /  10.4 °C 26.4 °F /  -3.1 °C 30.4in /  1027.9hPa Sur 1.9mph /  3km/h 6.2mph /  10km/h 38.6% 0in /  0.0mm
09:54 51.3 °F /  10.7 °C 26.4 °F /  -3.1 °C 30.4in /  1027.9hPa SSO 3.1mph /  5km/h 6mph /  9.7km/h 38% 0in /  0.0mm
09:59 51.6 °F /  10.9 °C 26.2 °F /  -3.2 °C 30.4in /  1027.9hPa SSO 3.8mph /  6.1km/h 6.2mph /  10km/h 37.1% 0in /  0.0mm
10:04 52.2 °F /  11.2 °C 26.2 °F /  -3.2 °C 30.4in /  1028.0hPa SSO 4mph /  6.5km/h 6.2mph /  10km/h 36.5% 0in /  0.0mm
10:09 52.2 °F /  11.2 °C 26.1 °F /  -3.3 °C 30.4in /  1028.0hPa SO 4mph /  6.5km/h 6.2mph /  10km/h 36.1% 0in /  0.0mm
10:14 52.5 °F /  11.4 °C 26.2 °F /  -3.2 °C 30.4in /  1028.0hPa SSO 4mph /  6.5km/h 6.9mph /  11.1km/h 36% 0in /  0.0mm
10:19 53.1 °F /  11.7 °C 26.2 °F /  -3.2 °C 30.4in /  1028.0hPa SO 4mph /  6.5km/h 7mph /  11.3km/h 35.3% 0in /  0.0mm
10:24 53.2 °F /  11.8 °C 25.5 °F /  -3.6 °C 30.4in /  1028.0hPa SO 4mph /  6.5km/h 8.1mph /  13km/h 34% 0in /  0.0mm
10:29 53.4 °F /  11.9 °C 25.7 °F /  -3.5 °C 30.4in /  1028.0hPa SO 4.2mph /  6.8km/h 8mph /  12.9km/h 34% 0in /  0.0mm
10:34 54 °F /  12.2 °C 25.7 °F /  -3.5 °C 30.4in /  1028.1hPa SO 4.3mph /  6.9km/h 6.9mph /  11.1km/h 33.6% 0in /  0.0mm
10:39 54 °F /  12.2 °C 25.9 °F /  -3.4 °C 30.4in /  1028.1hPa SO 4.2mph /  6.7km/h 7mph /  11.3km/h 33.5% 0in /  0.0mm
10:44 54.1 °F /  12.3 °C 25.7 °F /  -3.5 °C 30.4in /  1028.1hPa OSO 4mph /  6.5km/h 6.9mph /  11.1km/h 33% 0in /  0.0mm
10:49 54.5 °F /  12.5 °C 25.9 °F /  -3.4 °C 30.4in /  1028.1hPa SO 4mph /  6.5km/h 7mph /  11.3km/h 33% 0in /  0.0mm
10:54 54.7 °F /  12.6 °C 26.2 °F /  -3.2 °C 30.4in /  1028.1hPa SO 4.2mph /  6.7km/h 6.2mph /  10km/h 33% 0in /  0.0mm
10:59 55 °F /  12.8 °C 25.9 °F /  -3.4 °C 30.4in /  1028.1hPa OSO 4mph /  6.5km/h 8.1mph /  13km/h 32.1% 0in /  0.0mm
11:04 55.2 °F /  12.9 °C 26.6 °F /  -3 °C 30.4in /  1028.2hPa OSO 4mph /  6.5km/h 8.1mph /  13km/h 33% 0in /  0.0mm
11:09 55.4 °F /  13 °C 26.8 °F /  -2.9 °C 30.4in /  1028.2hPa OSO 4.3mph /  6.9km/h 8.1mph /  13km/h 33% 0in /  0.0mm
11:14 55.6 °F /  13.1 °C 27 °F /  -2.8 °C 30.4in /  1028.2hPa OSO 4.3mph /  6.9km/h 9.7mph /  15.6km/h 33% 0in /  0.0mm
11:19 55.8 °F /  13.2 °C 27 °F /  -2.8 °C 30.4in /  1028.2hPa SO 4.5mph /  7.3km/h 10mph /  16.1km/h 33.1% 0in /  0.0mm
11:24 55.8 °F /  13.2 °C 27.3 °F /  -2.6 °C 30.4in /  1028.2hPa SO 4.7mph /  7.6km/h 8.1mph /  13km/h 33.2% 0in /  0.0mm
11:29 55.8 °F /  13.2 °C 27.5 °F /  -2.5 °C 30.4in /  1028.2hPa SO 4.7mph /  7.6km/h 7mph /  11.3km/h 33.6% 0in /  0.0mm
11:34 55.9 °F /  13.3 °C 27.1 °F /  -2.7 °C 30.4in /  1028.2hPa OSO 4.7mph /  7.6km/h 7mph /  11.3km/h 33% 0in /  0.0mm
11:39 56.1 °F /  13.4 °C 27.5 °F /  -2.5 °C 30.4in /  1028.2hPa SO 4.7mph /  7.6km/h 6.9mph /  11.1km/h 33% 0in /  0.0mm
11:44 56.5 °F /  13.6 °C 27.3 °F /  -2.6 °C 30.4in /  1028.2hPa SO 4.7mph /  7.6km/h 8.5mph /  13.7km/h 32.7% 0in /  0.0mm
11:49 56.7 °F /  13.7 °C 27.7 °F /  -2.4 °C 30.4in /  1028.2hPa SO 4.6mph /  7.4km/h 9mph /  14.5km/h 32.8% 0in /  0.0mm
11:54 56.8 °F /  13.8 °C 27.3 °F /  -2.6 °C 30.4in /  1028.1hPa SO 4.3mph /  6.9km/h 9.2mph /  14.8km/h 32% 0in /  0.0mm
11:59 57 °F /  13.9 °C 27.1 °F /  -2.7 °C 30.4in /  1028.0hPa OSO 4.7mph /  7.5km/h 9.2mph /  14.8km/h 31.7% 0in /  0.0mm
12:04 57.6 °F /  14.2 °C 27 °F /  -2.8 °C 30.4in /  1028.0hPa SO 4.7mph /  7.6km/h 9mph /  14.5km/h 31% 0in /  0.0mm
12:09 57.6 °F /  14.2 °C 27.1 °F /  -2.7 °C 30.4in /  1027.9hPa ONO 4.5mph /  7.3km/h 9.2mph /  14.8km/h 31% 0in /  0.0mm
12:14 57.7 °F /  14.3 °C 27.1 °F /  -2.7 °C 30.3in /  1027.6hPa Oeste 4.3mph /  6.9km/h 9.2mph /  14.8km/h 30.7% 0in /  0.0mm
12:19 58.1 °F /  14.5 °C 26.8 °F /  -2.9 °C 30.3in /  1027.6hPa OSO 4.3mph /  6.9km/h 8.1mph /  13km/h 30% 0in /  0.0mm
12:24 58.5 °F /  14.7 °C 27 °F /  -2.8 °C 30.3in /  1027.6hPa OSO 4.7mph /  7.6km/h 8.7mph /  14km/h 29.9% 0in /  0.0mm
12:29 58.6 °F /  14.8 °C 26.4 °F /  -3.1 °C 30.3in /  1027.4hPa OSO 4.4mph /  7.1km/h 10.4mph /  16.7km/h 29% 0in /  0.0mm
12:34 58.6 °F /  14.8 °C 26.4 °F /  -3.1 °C 30.3in /  1027.3hPa SO 4.3mph /  6.9km/h 10mph /  16.1km/h 29% 0in /  0.0mm
12:39 58.8 °F /  14.9 °C 26.6 °F /  -3 °C 30.3in /  1027.2hPa OSO 5mph /  8.1km/h 10mph /  16.1km/h 29.1% 0in /  0.0mm
12:44 58.8 °F /  14.9 °C 26.8 °F /  -2.9 °C 30.3in /  1027.0hPa OSO 5.4mph /  8.7km/h 9mph /  14.5km/h 29% 0in /  0.0mm
12:49 59 °F /  15 °C 26.8 °F /  -2.9 °C 30.3in /  1027.0hPa OSO 5.3mph /  8.5km/h 8mph /  12.9km/h 28.8% 0in /  0.0mm
12:54 59.4 °F /  15.2 °C 26.2 °F /  -3.2 °C 30.3in /  1026.9hPa OSO 4.7mph /  7.6km/h 8.5mph /  13.7km/h 28% 0in /  0.0mm
12:59 59.5 °F /  15.3 °C 26.6 °F /  -3 °C 30.3in /  1026.7hPa Oeste 5.1mph /  8.2km/h 9mph /  14.5km/h 28.2% 0in /  0.0mm
13:04 59.9 °F /  15.5 °C 26.8 °F /  -2.9 °C 30.3in /  1026.7hPa SSO 5.2mph /  8.4km/h 9.2mph /  14.8km/h 28.2% 0in /  0.0mm
13:09 60.1 °F /  15.6 °C 27.3 °F /  -2.6 °C 30.3in /  1026.7hPa OSO 5.2mph /  8.4km/h 10mph /  16.1km/h 28.4% 0in /  0.0mm
13:14 60.3 °F /  15.7 °C 27 °F /  -2.8 °C 30.3in /  1026.5hPa OSO 5.2mph /  8.4km/h 10mph /  16.1km/h 28% 0in /  0.0mm
13:19 60.4 °F /  15.8 °C 27.1 °F /  -2.7 °C 30.3in /  1026.5hPa OSO 4.8mph /  7.8km/h 6.9mph /  11.1km/h 28% 0in /  0.0mm
13:24 60.6 °F /  15.9 °C 27.1 °F /  -2.7 °C 30.3in /  1026.4hPa SO 4.7mph /  7.6km/h 7mph /  11.3km/h 27.8% 0in /  0.0mm
13:29 61 °F /  16.1 °C 27 °F /  -2.8 °C 30.3in /  1026.4hPa SSO 4.2mph /  6.8km/h 6.2mph /  10km/h 27.3% 0in /  0.0mm
13:34 61.2 °F /  16.2 °C 27 °F /  -2.8 °C 30.3in /  1026.4hPa SO 4mph /  6.5km/h 8.1mph /  13km/h 27.1% 0in /  0.0mm
13:39 61.2 °F /  16.2 °C 27 °F /  -2.8 °C 30.3in /  1026.2hPa OSO 4mph /  6.5km/h 8.1mph /  13km/h 26.9% 0in /  0.0mm
13:44 61.2 °F /  16.2 °C 26.1 °F /  -3.3 °C 30.3in /  1026.2hPa OSO 4mph /  6.5km/h 8mph /  12.9km/h 26% 0in /  0.0mm
13:49 61.3 °F /  16.3 °C 26.8 °F /  -2.9 °C 30.3in /  1026.2hPa OSO 3.7mph /  6km/h 7mph /  11.3km/h 26.6% 0in /  0.0mm
13:54 61.5 °F /  16.4 °C 26.4 °F /  -3.1 °C 30.3in /  1026.0hPa Oeste 3.6mph /  5.8km/h 6mph /  9.7km/h 26% 0in /  0.0mm
13:59 61.9 °F /  16.6 °C 25.9 °F /  -3.4 °C 30.3in /  1026.0hPa SSO 3.6mph /  5.8km/h 8.1mph /  13km/h 25.5% 0in /  0.0mm
14:04 62.2 °F /  16.8 °C 26.1 °F /  -3.3 °C 30.3in /  1026.0hPa SO 3.6mph /  5.8km/h 8mph /  12.9km/h 25.2% 0in /  0.0mm
14:09 62.4 °F /  16.9 °C 26.4 °F /  -3.1 °C 30.3in /  1025.8hPa SSO 3.6mph /  5.8km/h 6mph /  9.7km/h 25.4% 0in /  0.0mm
14:14 62.8 °F /  17.1 °C 26.4 °F /  -3.1 °C 30.3in /  1025.8hPa SSO 3.6mph /  5.8km/h 6.9mph /  11.1km/h 25% 0in /  0.0mm
14:19 63 °F /  17.2 °C 26.4 °F /  -3.1 °C 30.3in /  1025.8hPa SSE 3.2mph /  5.1km/h 7mph /  11.3km/h 24.8% 0in /  0.0mm
14:24 63 °F /  17.2 °C 26.2 °F /  -3.2 °C 30.3in /  1025.6hPa SE 2.9mph /  4.6km/h 7mph /  11.3km/h 24.7% 0in /  0.0mm
14:29 63 °F /  17.2 °C 26.6 °F /  -3 °C 30.3in /  1025.6hPa SSO 3.9mph /  6.2km/h 6.2mph /  10km/h 25% 0in /  0.0mm
14:34 63.1 °F /  17.3 °C 26.6 °F /  -3 °C 30.3in /  1025.6hPa SO 4.3mph /  6.9km/h 8.1mph /  13km/h 25% 0in /  0.0mm
14:39 63.1 °F /  17.3 °C 26.8 °F /  -2.9 °C 30.3in /  1025.4hPa SO 3.9mph /  6.3km/h 8mph /  12.9km/h 25% 0in /  0.0mm
14:44 63.5 °F /  17.5 °C 26.8 °F /  -2.9 °C 30.3in /  1025.4hPa SSO 3.6mph /  5.8km/h 4.3mph /  6.9km/h 24.7% 0in /  0.0mm
14:49 63.7 °F /  17.6 °C 26.2 °F /  -3.2 °C 30.3in /  1025.5hPa OSO 2.5mph /  4km/h 5.2mph /  8.4km/h 24% 0in /  0.0mm
14:54 63.9 °F /  17.7 °C 26.2 °F /  -3.2 °C 30.3in /  1025.5hPa OSO 2mph /  3.2km/h 5mph /  8km/h 23.9% 0in /  0.0mm
14:59 64 °F /  17.8 °C 26.4 °F /  -3.1 °C 30.3in /  1025.5hPa Sur 2mph /  3.2km/h 5mph /  8km/h 23.9% 0in /  0.0mm
15:04 64.2 °F /  17.9 °C 26.6 °F /  -3 °C 30.3in /  1025.5hPa SSO 2mph /  3.2km/h 5.4mph /  8.7km/h 24% 0in /  0.0mm
15:09 64.2 °F /  17.9 °C 26.2 °F /  -3.2 °C 30.3in /  1025.3hPa SO 2.6mph /  4.2km/h 5.2mph /  8.4km/h 23.6% 0in /  0.0mm
15:14 64.4 °F /  18 °C 26.1 °F /  -3.3 °C 30.3in /  1025.3hPa SO 2.9mph /  4.6km/h 5mph /  8km/h 23.4% 0in /  0.0mm
15:19 64.6 °F /  18.1 °C 26.1 °F /  -3.3 °C 30.3in /  1025.3hPa SSO 2.9mph /  4.6km/h 5.9mph /  9.5km/h 23.3% 0in /  0.0mm
15:24 64.6 °F /  18.1 °C 25.9 °F /  -3.4 °C 30.3in /  1025.3hPa Sur 2.9mph /  4.6km/h 6mph /  9.7km/h 23% 0in /  0.0mm
15:29 64.8 °F /  18.2 °C 26.1 °F /  -3.3 °C 30.3in /  1025.3hPa SSE 2.9mph /  4.6km/h 5mph /  8km/h 23% 0in /  0.0mm
15:34 64.6 °F /  18.1 °C 25.9 °F /  -3.4 °C 30.3in /  1025.3hPa SSE 2.9mph /  4.7km/h 5.2mph /  8.4km/h 23% 0in /  0.0mm
15:39 64.8 °F /  18.2 °C 26.8 °F /  -2.9 °C 30.3in /  1025.3hPa SSO 2.9mph /  4.7km/h 5mph /  8km/h 23.7% 0in /  0.0mm
15:44 64.9 °F /  18.3 °C 26.6 °F /  -3 °C 30.3in /  1025.3hPa SSO 2.9mph /  4.7km/h 5mph /  8km/h 23.4% 0in /  0.0mm
15:49 64.9 °F /  18.3 °C 26.8 °F /  -2.9 °C 30.3in /  1025.4hPa SSO 2.5mph /  4.1km/h 5mph /  8km/h 23.6% 0in /  0.0mm
15:54 64.8 °F /  18.2 °C 26.8 °F /  -2.9 °C 30.3in /  1025.4hPa Sur 2.4mph /  3.9km/h 5.2mph /  8.4km/h 23.7% 0in /  0.0mm
15:59 64.6 °F /  18.1 °C 26.6 °F /  -3 °C 30.3in /  1025.4hPa NNE 2.4mph /  3.9km/h 5mph /  8km/h 23.7% 0in /  0.0mm
16:04 64.6 °F /  18.1 °C 26.2 °F /  -3.2 °C 30.3in /  1025.4hPa NNE 2.4mph /  3.9km/h 4mph /  6.4km/h 23.3% 0in /  0.0mm
16:09 64.8 °F /  18.2 °C 26.2 °F /  -3.2 °C 30.3in /  1025.3hPa NNE 0.9mph /  1.4km/h 2mph /  3.2km/h 23.3% 0in /  0.0mm
16:14 64.9 °F /  18.3 °C 27 °F /  -2.8 °C 30.3in /  1025.3hPa Calm   4mph /  6.4km/h 23.8% 0in /  0.0mm
16:19 64.8 °F /  18.2 °C 26.2 °F /  -3.2 °C 30.3in /  1025.3hPa ENE 1.2mph /  1.9km/h 5mph /  8km/h 23% 0in /  0.0mm
16:24 64.8 °F /  18.2 °C 26.1 °F /  -3.3 °C 30.3in /  1025.3hPa ENE 1.8mph /  2.9km/h 4mph /  6.4km/h 23% 0in /  0.0mm
16:29 64.8 °F /  18.2 °C 26.1 °F /  -3.3 °C 30.3in /  1025.3hPa ENE 1.8mph /  2.9km/h 4.6mph /  7.4km/h 23% 0in /  0.0mm
16:34 64.8 °F /  18.2 °C 26.4 °F /  -3.1 °C 30.3in /  1025.3hPa ENE 1.8mph /  2.9km/h 5mph /  8km/h 23.4% 0in /  0.0mm
16:39 64.8 °F /  18.2 °C 26.6 °F /  -3 °C 30.3in /  1025.2hPa NE 1.6mph /  2.5km/h 4.6mph /  7.4km/h 23.6% 0in /  0.0mm
16:44 64.8 °F /  18.2 °C 26.8 °F /  -2.9 °C 30.3in /  1025.2hPa NNE 1.4mph /  2.2km/h 5mph /  8km/h 23.6% 0in /  0.0mm
16:49 64.8 °F /  18.2 °C 27.1 °F /  -2.7 °C 30.3in /  1025.2hPa NNE 1.8mph /  2.9km/h 4mph /  6.4km/h 24% 0in /  0.0mm
16:54 64.8 °F /  18.2 °C 27.1 °F /  -2.7 °C 30.3in /  1025.2hPa NNE 2mph /  3.2km/h 3.6mph /  5.8km/h 24% 0in /  0.0mm
16:59 64.6 °F /  18.1 °C 27.1 °F /  -2.7 °C 30.3in /  1025.2hPa NNE 1.6mph /  2.6km/h 4mph /  6.4km/h 24.2% 0in /  0.0mm
17:04 64.6 °F /  18.1 °C 27.3 °F /  -2.6 °C 30.3in /  1025.2hPa NNE 1.4mph /  2.2km/h 3.1mph /  5km/h 24.4% 0in /  0.0mm
17:09 64.6 °F /  18.1 °C 27 °F /  -2.8 °C 30.3in /  1025.1hPa NNE 1.7mph /  2.7km/h 3.5mph /  5.6km/h 24.1% 0in /  0.0mm
17:14 64.6 °F /  18.1 °C 27 °F /  -2.8 °C 30.3in /  1025.1hPa NNE 1.8mph /  2.9km/h 3mph /  4.8km/h 24% 0in /  0.0mm
17:19 64.4 °F /  18 °C 27 °F /  -2.8 °C 30.3in /  1025.2hPa NNE 0.7mph /  1.1km/h 3.5mph /  5.6km/h 24.2% 0in /  0.0mm
17:24 64.2 °F /  17.9 °C 27 °F /  -2.8 °C 30.3in /  1025.2hPa Calm   3.5mph /  5.6km/h 24.2% 0in /  0.0mm
17:29 64 °F /  17.8 °C 27.3 °F /  -2.6 °C 30.3in /  1025.2hPa NNE 1.3mph /  2.1km/h 3.5mph /  5.6km/h 24.8% 0in /  0.0mm
17:34 64 °F /  17.8 °C 27.5 °F /  -2.5 °C 30.3in /  1025.2hPa NNE 2mph /  3.2km/h 3mph /  4.8km/h 25% 0in /  0.0mm
17:39 63.9 °F /  17.7 °C 27.9 °F /  -2.3 °C 30.3in /  1025.1hPa NNE 1.9mph /  3km/h 3mph /  4.8km/h 25.5% 0in /  0.0mm
17:44 63.9 °F /  17.7 °C 28.6 °F /  -1.9 °C 30.3in /  1025.1hPa ESE 1.8mph /  2.9km/h 5.8mph /  9.3km/h 26.4% 0in /  0.0mm
17:49 63.5 °F /  17.5 °C 29.5 °F /  -1.4 °C 30.3in /  1025.1hPa Sur 2.5mph /  4.1km/h 6mph /  9.7km/h 27.8% 0in /  0.0mm
17:54 63.1 °F /  17.3 °C 30.2 °F /  -1 °C 30.3in /  1025.1hPa Sur 2.9mph /  4.6km/h 5mph /  8km/h 28.8% 0in /  0.0mm
17:59 62.6 °F /  17 °C 30.4 °F /  -0.9 °C 30.3in /  1025.1hPa Sur 2.9mph /  4.7km/h 5mph /  8km/h 29.6% 0in /  0.0mm
18:04 62.1 °F /  16.7 °C 30.7 °F /  -0.7 °C 30.3in /  1025.3hPa Sur 2.9mph /  4.6km/h 5.2mph /  8.4km/h 30.6% 0in /  0.0mm
18:09 61.7 °F /  16.5 °C 30.9 °F /  -0.6 °C 30.3in /  1025.3hPa SSE 3mph /  4.9km/h 5.2mph /  8.4km/h 31.1% 0in /  0.0mm
18:14 61.2 °F /  16.2 °C 31.1 °F /  -0.5 °C 30.3in /  1025.3hPa SSE 3.1mph /  5km/h 5.2mph /  8.4km/h 32% 0in /  0.0mm
18:19 60.6 °F /  15.9 °C 31.8 °F /  -0.1 °C 30.3in /  1025.4hPa SE 3.4mph /  5.5km/h 5mph /  8km/h 33.5% 0in /  0.0mm
18:24 60.1 °F /  15.6 °C 32.2 °F /  0.1 °C 30.3in /  1025.4hPa SE 3.6mph /  5.8km/h 5.2mph /  8.4km/h 34.8% 0in /  0.0mm
18:29 59.4 °F /  15.2 °C 32 °F /  0 °C 30.3in /  1025.4hPa SE 3.3mph /  5.3km/h 5.2mph /  8.4km/h 35.5% 0in /  0.0mm
18:34 58.6 °F /  14.8 °C 31.8 °F /  -0.1 °C 30.3in /  1025.4hPa SE 3.1mph /  5km/h 5.2mph /  8.4km/h 36.1% 0in /  0.0mm
18:39 57.9 °F /  14.4 °C 31.8 °F /  -0.1 °C 30.3in /  1025.4hPa SE 3.4mph /  5.5km/h 5.2mph /  8.4km/h 37% 0in /  0.0mm
18:44 57.6 °F /  14.2 °C 31.8 °F /  -0.1 °C 30.3in /  1025.4hPa SE 3.6mph /  5.8km/h 5.2mph /  8.4km/h 37.6% 0in /  0.0mm
18:49 57 °F /  13.9 °C 31.6 °F /  -0.2 °C 30.3in /  1025.4hPa SE 3.3mph /  5.3km/h 5mph /  8km/h 38% 0in /  0.0mm
18:54 56.7 °F /  13.7 °C 31.5 °F /  -0.3 °C 30.3in /  1025.4hPa SE 3.1mph /  5km/h 5mph /  8km/h 38% 0in /  0.0mm
18:59 56.3 °F /  13.5 °C 31.6 °F /  -0.2 °C 30.3in /  1025.4hPa SE 3mph /  4.8km/h 5mph /  8km/h 39% 0in /  0.0mm
19:04 55.9 °F /  13.3 °C 31.6 °F /  -0.2 °C 30.3in /  1025.4hPa Sur 2.9mph /  4.6km/h 5mph /  8km/h 39.7% 0in /  0.0mm
19:09 55.8 °F /  13.2 °C 31.6 °F /  -0.2 °C 30.3in /  1025.4hPa Sur 2.9mph /  4.7km/h 5mph /  8km/h 39.6% 0in /  0.0mm
19:14 55.6 °F /  13.1 °C 31.1 °F /  -0.5 °C 30.3in /  1025.4hPa Sur 2.9mph /  4.7km/h 5mph /  8km/h 39.2% 0in /  0.0mm
19:19 55.6 °F /  13.1 °C 31.1 °F /  -0.5 °C 30.3in /  1025.4hPa Sur 2.3mph /  3.7km/h 3mph /  4.8km/h 39% 0in /  0.0mm
19:24 55.6 °F /  13.1 °C 31.5 °F /  -0.3 °C 30.3in /  1025.4hPa Sur 2mph /  3.2km/h 2.4mph /  3.9km/h 39.8% 0in /  0.0mm
19:29 55.4 °F /  13 °C 31.8 °F /  -0.1 °C 30.3in /  1025.4hPa SO 2mph /  3.2km/h 4.7mph /  7.6km/h 40.6% 0in /  0.0mm
19:34 54.9 °F /  12.7 °C 32.2 °F /  0.1 °C 30.3in /  1025.4hPa SO 2mph /  3.2km/h 5mph /  8km/h 41.8% 0in /  0.0mm
19:39 54.5 °F /  12.5 °C 32.2 °F /  0.1 °C 30.3in /  1025.4hPa OSO 2.2mph /  3.6km/h 4.7mph /  7.6km/h 42.8% 0in /  0.0mm
19:44 54 °F /  12.2 °C 32.2 °F /  0.1 °C 30.3in /  1025.4hPa Oeste 2.4mph /  3.9km/h 5.2mph /  8.4km/h 43.3% 0in /  0.0mm
19:49 53.6 °F /  12 °C 32.2 °F /  0.1 °C 30.3in /  1025.5hPa ONO 2.9mph /  4.6km/h 5mph /  8km/h 44% 0in /  0.0mm
19:54 53.2 °F /  11.8 °C 32 °F /  0 °C 30.3in /  1025.5hPa ONO 3.1mph /  5km/h 5mph /  8km/h 44.2% 0in /  0.0mm
19:59 53.1 °F /  11.7 °C 31.6 °F /  -0.2 °C 30.3in /  1025.5hPa ONO 2.6mph /  4.2km/h 5mph /  8km/h 44% 0in /  0.0mm
20:04 53.2 °F /  11.8 °C 31.8 °F /  -0.1 °C 30.3in /  1025.6hPa Oeste 2.4mph /  3.9km/h 5.2mph /  8.4km/h 44% 0in /  0.0mm
20:09 53.4 °F /  11.9 °C 32 °F /  0 °C 30.3in /  1025.6hPa OSO 2.9mph /  4.6km/h 5.8mph /  9.3km/h 44% 0in /  0.0mm
20:14 53.4 °F /  11.9 °C 31.6 °F /  -0.2 °C 30.3in /  1025.6hPa SO 3.1mph /  5km/h 6mph /  9.7km/h 43.2% 0in /  0.0mm
20:19 53.4 °F /  11.9 °C 31.8 °F /  -0.1 °C 30.3in /  1025.7hPa SO 3.1mph /  5km/h 6mph /  9.7km/h 43.7% 0in /  0.0mm
20:24 53.2 °F /  11.8 °C 30.9 °F /  -0.6 °C 30.3in /  1025.7hPa SSO 3.1mph /  5km/h 8.5mph /  13.7km/h 42.2% 0in /  0.0mm
20:29 53.1 °F /  11.7 °C 30.6 °F /  -0.8 °C 30.3in /  1025.7hPa SSO 4.1mph /  6.6km/h 9mph /  14.5km/h 41.8% 0in /  0.0mm
20:34 53.1 °F /  11.7 °C 30 °F /  -1.1 °C 30.3in /  1025.7hPa SO 4.7mph /  7.6km/h 8mph /  12.9km/h 41.2% 0in /  0.0mm
20:39 53.1 °F /  11.7 °C 29.8 °F /  -1.2 °C 30.3in /  1025.7hPa SO 4.7mph /  7.6km/h 7mph /  11.3km/h 40.7% 0in /  0.0mm
20:44 53.2 °F /  11.8 °C 29.5 °F /  -1.4 °C 30.3in /  1025.7hPa SSO 4.7mph /  7.6km/h 7mph /  11.3km/h 40% 0in /  0.0mm
20:49 53.2 °F /  11.8 °C 29.5 °F /  -1.4 °C 30.3in /  1025.7hPa SSO 4mph /  6.4km/h 6mph /  9.7km/h 40% 0in /  0.0mm
20:54 53.1 °F /  11.7 °C 30 °F /  -1.1 °C 30.3in /  1025.7hPa SSE 3.6mph /  5.8km/h 6.9mph /  11.1km/h 41.2% 0in /  0.0mm
20:59 52.3 °F /  11.3 °C 30.4 °F /  -0.9 °C 30.3in /  1025.7hPa SE 4.1mph /  6.6km/h 7mph /  11.3km/h 42.8% 0in /  0.0mm
21:04 51.6 °F /  10.9 °C 31.5 °F /  -0.3 °C 30.3in /  1025.8hPa SE 4.3mph /  6.9km/h 7mph /  11.3km/h 45.9% 0in /  0.0mm
21:09 50.5 °F /  10.3 °C 31.6 °F /  -0.2 °C 30.3in /  1025.8hPa Sur 4.3mph /  6.9km/h 6.9mph /  11.1km/h 48.1% 0in /  0.0mm
21:14 49.6 °F /  9.8 °C 31.6 °F /  -0.2 °C 30.3in /  1025.8hPa Sur 4.3mph /  6.9km/h 7.4mph /  11.9km/h 49.8% 0in /  0.0mm
21:19 49.3 °F /  9.6 °C 31.8 °F /  -0.1 °C 30.3in /  1025.8hPa Sur 4.1mph /  6.6km/h 7mph /  11.3km/h 50.7% 0in /  0.0mm
21:24 48.9 °F /  9.4 °C 31.6 °F /  -0.2 °C 30.3in /  1025.8hPa Sur 4mph /  6.5km/h 6mph /  9.7km/h 51% 0in /  0.0mm
21:29 48.9 °F /  9.4 °C 31.6 °F /  -0.2 °C 30.3in /  1025.8hPa SSO 3.3mph /  5.3km/h 5mph /  8km/h 51% 0in /  0.0mm
21:34 48.9 °F /  9.4 °C 31.6 °F /  -0.2 °C 30.3in /  1025.9hPa SSO 2.9mph /  4.7km/h 4.3mph /  6.9km/h 51% 0in /  0.0mm
21:39 49.1 °F /  9.5 °C 32.2 °F /  0.1 °C 30.3in /  1025.9hPa Sur 2.5mph /  4.1km/h 5.2mph /  8.4km/h 52% 0in /  0.0mm
21:44 48.7 °F /  9.3 °C 32 °F /  0 °C 30.3in /  1025.9hPa SSE 2.4mph /  3.9km/h 6.9mph /  11.1km/h 52.4% 0in /  0.0mm
21:49 48.4 °F /  9.1 °C 32.2 °F /  0.1 °C 30.3in /  1025.9hPa SSE 3.4mph /  5.5km/h 7mph /  11.3km/h 53.6% 0in /  0.0mm
21:54 47.8 °F /  8.8 °C 32.2 °F /  0.1 °C 30.3in /  1025.8hPa SSE 4mph /  6.5km/h 6mph /  9.7km/h 54.1% 0in /  0.0mm
21:59 47.7 °F /  8.7 °C 32.4 °F /  0.2 °C 30.3in /  1025.8hPa SSE 4mph /  6.5km/h 6mph /  9.7km/h 55% 0in /  0.0mm
22:04 47.7 °F /  8.7 °C 32.4 °F /  0.2 °C 30.3in /  1025.9hPa SE 4mph /  6.5km/h 6mph /  9.7km/h 55.1% 0in /  0.0mm
22:09 47.5 °F /  8.6 °C 32.5 °F /  0.3 °C 30.3in /  1025.9hPa SE 3.4mph /  5.5km/h 5.2mph /  8.4km/h 56% 0in /  0.0mm
22:14 47.1 °F /  8.4 °C 32.7 °F /  0.4 °C 30.3in /  1025.9hPa SE 3.1mph /  5km/h 5.2mph /  8.4km/h 56.8% 0in /  0.0mm
22:19 46.9 °F /  8.3 °C 32.7 °F /  0.4 °C 30.3in /  1025.9hPa SSE 3.4mph /  5.5km/h 5.9mph /  9.5km/h 57.5% 0in /  0.0mm
22:24 46.9 °F /  8.3 °C 32.7 °F /  0.4 °C 30.3in /  1025.9hPa Sur 3.6mph /  5.8km/h 6.9mph /  11.1km/h 57.7% 0in /  0.0mm
22:29 46.9 °F /  8.3 °C 32.5 °F /  0.3 °C 30.3in /  1025.9hPa Sur 4mph /  6.5km/h 7.4mph /  11.9km/h 57% 0in /  0.0mm
22:34 47.3 °F /  8.5 °C 32.9 °F /  0.5 °C 30.3in /  1026.0hPa SSO 4.3mph /  6.9km/h 7mph /  11.3km/h 57% 0in /  0.0mm
22:39 47.7 °F /  8.7 °C 32.5 °F /  0.3 °C 30.3in /  1026.0hPa SSO 4.5mph /  7.3km/h 7.4mph /  11.9km/h 55.9% 0in /  0.0mm
22:44 47.8 °F /  8.8 °C 32 °F /  0 °C 30.3in /  1026.0hPa SSO 4.7mph /  7.6km/h 8.1mph /  13km/h 54.1% 0in /  0.0mm
22:49 48.2 °F /  9 °C 31.6 °F /  -0.2 °C 30.3in /  1026.0hPa SSO 5mph /  8.1km/h 8.5mph /  13.7km/h 52.7% 0in /  0.0mm
22:54 48.6 °F /  9.2 °C 31.6 °F /  -0.2 °C 30.3in /  1026.0hPa SO 5.2mph /  8.4km/h 9mph /  14.5km/h 52% 0in /  0.0mm
22:59 48.6 °F /  9.2 °C 31.6 °F /  -0.2 °C 30.3in /  1026.0hPa SO 5.3mph /  8.6km/h 8mph /  12.9km/h 52% 0in /  0.0mm
23:04 48.7 °F /  9.3 °C 32.2 °F /  0.1 °C 30.3in /  1026.0hPa SO 5.4mph /  8.7km/h 7mph /  11.3km/h 52.7% 0in /  0.0mm
23:09 48.7 °F /  9.3 °C 32.4 °F /  0.2 °C 30.3in /  1026.0hPa OSO 4.5mph /  7.3km/h 6mph /  9.7km/h 53% 0in /  0.0mm
23:14 48.7 °F /  9.3 °C 32.4 °F /  0.2 °C 30.3in /  1026.0hPa OSO 4mph /  6.5km/h 6mph /  9.7km/h 53% 0in /  0.0mm
23:19 48.6 °F /  9.2 °C 32.2 °F /  0.1 °C 30.3in /  1026.0hPa OSO 3.7mph /  6km/h 6.2mph /  10km/h 53% 0in /  0.0mm
23:24 48.2 °F /  9 °C 32.4 °F /  0.2 °C 30.3in /  1026.0hPa SO 3.6mph /  5.8km/h 6mph /  9.7km/h 54% 0in /  0.0mm
23:29 47.8 °F /  8.8 °C 32.5 °F /  0.3 °C 30.3in /  1026.0hPa SSO 3.6mph /  5.8km/h 6mph /  9.7km/h 55% 0in /  0.0mm
23:34 47.8 °F /  8.8 °C 32.7 °F /  0.4 °C 30.3in /  1026.1hPa SSO 3.6mph /  5.8km/h 5.9mph /  9.5km/h 55.7% 0in /  0.0mm
23:39 47.8 °F /  8.8 °C 32.9 °F /  0.5 °C 30.3in /  1026.1hPa SSO 3.2mph /  5.1km/h 6mph /  9.7km/h 56% 0in /  0.0mm
23:44 47.8 °F /  8.8 °C 32.9 °F /  0.5 °C 30.3in /  1026.1hPa SSO 2.9mph /  4.6km/h 5mph /  8km/h 56.1% 0in /  0.0mm
23:49 47.7 °F /  8.7 °C 33.4 °F /  0.8 °C 30.3in /  1026.1hPa SSO 2.3mph /  3.7km/h 3.5mph /  5.6km/h 57.7% 0in /  0.0mm
23:54 47.5 °F /  8.6 °C 33.6 °F /  0.9 °C 30.3in /  1026.0hPa SSO 2mph /  3.2km/h 4mph /  6.4km/h 58.6% 0in /  0.0mm
23:59 46.8 °F /  8.2 °C 33.6 °F /  0.9 °C 30.3in /  1026.0hPa SSE 2mph /  3.2km/h 5mph /  8km/h 59.8% 0in /  0.0mm
Murcia-Puente Tocinos, España
Compliments of Weather Underground - 3 mb

La estación de MeteoMurcia.com, publica sus datos en los siguientes proyectos:

Weather Underground PWS IMURCIAP2 Meteoclimatic www.awekas.at

W3Counter
Web Analytics